sensor_id;sensor_type;location;lat;lon;timestamp;temperature;humidity
60242;SHT30;46103;52.076;113.488;2023-04-26T00:01:56;2.88;40.66
60242;SHT30;46103;52.076;113.488;2023-04-26T00:05:01;2.93;40.30
60242;SHT30;46103;52.076;113.488;2023-04-26T00:08:06;3.05;39.86
60242;SHT30;46103;52.076;113.488;2023-04-26T00:11:11;3.08;39.86
60242;SHT30;46103;52.076;113.488;2023-04-26T00:14:14;3.27;39.36
60242;SHT30;46103;52.076;113.488;2023-04-26T00:17:18;3.40;39.09
60242;SHT30;46103;52.076;113.488;2023-04-26T00:20:21;3.57;38.65
60242;SHT30;46103;52.076;113.488;2023-04-26T00:23:26;3.73;38.25
60242;SHT30;46103;52.076;113.488;2023-04-26T00:26:30;3.79;37.76
60242;SHT30;46103;52.076;113.488;2023-04-26T00:29:35;3.84;37.63
60242;SHT30;46103;52.076;113.488;2023-04-26T00:32:39;3.94;37.14
60242;SHT30;46103;52.076;113.488;2023-04-26T00:35:43;4.10;36.62
60242;SHT30;46103;52.076;113.488;2023-04-26T00:38:47;4.17;36.01
60242;SHT30;46103;52.076;113.488;2023-04-26T00:41:52;4.37;35.60
60242;SHT30;46103;52.076;113.488;2023-04-26T00:44:56;4.63;34.60
60242;SHT30;46103;52.076;113.488;2023-04-26T00:48:01;4.47;34.48
60242;SHT30;46103;52.076;113.488;2023-04-26T00:51:06;4.53;34.49
60242;SHT30;46103;52.076;113.488;2023-04-26T00:54:11;4.82;33.61
60242;SHT30;46103;52.076;113.488;2023-04-26T00:57:15;5.09;33.37
60242;SHT30;46103;52.076;113.488;2023-04-26T01:00:19;5.29;32.56
60242;SHT30;46103;52.076;113.488;2023-04-26T01:03:24;5.49;32.13
60242;SHT30;46103;52.076;113.488;2023-04-26T01:06:33;5.75;31.73
60242;SHT30;46103;52.076;113.488;2023-04-26T01:09:39;5.99;31.15
60242;SHT30;46103;52.076;113.488;2023-04-26T01:12:43;6.12;30.93
60242;SHT30;46103;52.076;113.488;2023-04-26T01:15:47;6.26;30.52
60242;SHT30;46103;52.076;113.488;2023-04-26T01:18:52;6.39;30.55
60242;SHT30;46103;52.076;113.488;2023-04-26T01:21:56;6.54;29.76
60242;SHT30;46103;52.076;113.488;2023-04-26T01:25:03;6.71;28.95
60242;SHT30;46103;52.076;113.488;2023-04-26T01:28:09;6.74;28.55
60242;SHT30;46103;52.076;113.488;2023-04-26T01:31:14;6.85;27.81
60242;SHT30;46103;52.076;113.488;2023-04-26T01:34:19;6.94;28.01
60242;SHT30;46103;52.076;113.488;2023-04-26T01:37:22;7.11;27.33
60242;SHT30;46103;52.076;113.488;2023-04-26T01:40:27;7.23;24.84
60242;SHT30;46103;52.076;113.488;2023-04-26T01:43:31;7.40;25.53
60242;SHT30;46103;52.076;113.488;2023-04-26T01:46:35;7.63;25.06
60242;SHT30;46103;52.076;113.488;2023-04-26T01:49:40;7.93;25.61
60242;SHT30;46103;52.076;113.488;2023-04-26T01:52:43;8.15;25.13
60242;SHT30;46103;52.076;113.488;2023-04-26T01:55:48;8.31;23.69
60242;SHT30;46103;52.076;113.488;2023-04-26T01:58:52;8.46;23.81
60242;SHT30;46103;52.076;113.488;2023-04-26T02:01:58;8.56;22.95
60242;SHT30;46103;52.076;113.488;2023-04-26T02:05:02;8.80;22.72
60242;SHT30;46103;52.076;113.488;2023-04-26T02:08:06;8.77;22.46
60242;SHT30;46103;52.076;113.488;2023-04-26T02:11:09;9.08;22.46
60242;SHT30;46103;52.076;113.488;2023-04-26T02:14:14;9.32;21.41
60242;SHT30;46103;52.076;113.488;2023-04-26T02:17:18;9.35;21.42
60242;SHT30;46103;52.076;113.488;2023-04-26T02:20:23;9.60;21.55
60242;SHT30;46103;52.076;113.488;2023-04-26T02:23:27;9.72;21.07
60242;SHT30;46103;52.076;113.488;2023-04-26T02:26:32;9.91;20.72
60242;SHT30;46103;52.076;113.488;2023-04-26T02:29:35;10.15;20.56
60242;SHT30;46103;52.076;113.488;2023-04-26T02:32:47;10.19;19.72
60242;SHT30;46103;52.076;113.488;2023-04-26T02:35:51;10.29;19.76
60242;SHT30;46103;52.076;113.488;2023-04-26T02:38:56;10.34;19.63
60242;SHT30;46103;52.076;113.488;2023-04-26T02:42:01;10.62;19.57
60242;SHT30;46103;52.076;113.488;2023-04-26T02:45:05;10.79;19.56
60242;SHT30;46103;52.076;113.488;2023-04-26T02:48:10;10.90;19.30
60242;SHT30;46103;52.076;113.488;2023-04-26T02:51:15;11.03;19.61
60242;SHT30;46103;52.076;113.488;2023-04-26T02:54:19;11.35;19.25
60242;SHT30;46103;52.076;113.488;2023-04-26T02:57:23;11.54;19.21
60242;SHT30;46103;52.076;113.488;2023-04-26T03:00:28;11.70;18.89
60242;SHT30;46103;52.076;113.488;2023-04-26T03:03:32;11.80;19.09
60242;SHT30;46103;52.076;113.488;2023-04-26T03:06:36;11.91;18.72
60242;SHT30;46103;52.076;113.488;2023-04-26T03:09:40;12.00;18.80
60242;SHT30;46103;52.076;113.488;2023-04-26T03:12:44;12.20;18.45
60242;SHT30;46103;52.076;113.488;2023-04-26T03:15:47;12.45;18.33
60242;SHT30;46103;52.076;113.488;2023-04-26T03:18:51;12.66;17.69
60242;SHT30;46103;52.076;113.488;2023-04-26T03:21:56;12.56;17.61
60242;SHT30;46103;52.076;113.488;2023-04-26T03:24:59;12.58;16.77
60242;SHT30;46103;52.076;113.488;2023-04-26T03:28:03;12.68;16.97
60242;SHT30;46103;52.076;113.488;2023-04-26T03:31:07;12.65;15.49
60242;SHT30;46103;52.076;113.488;2023-04-26T03:34:11;12.51;16.00
60242;SHT30;46103;52.076;113.488;2023-04-26T03:37:15;12.58;16.15
60242;SHT30;46103;52.076;113.488;2023-04-26T03:40:25;12.69;16.11
60242;SHT30;46103;52.076;113.488;2023-04-26T03:43:29;12.85;15.82
60242;SHT30;46103;52.076;113.488;2023-04-26T03:46:34;12.73;15.43
60242;SHT30;46103;52.076;113.488;2023-04-26T03:49:38;12.58;15.27
60242;SHT30;46103;52.076;113.488;2023-04-26T03:52:43;12.44;15.80
60242;SHT30;46103;52.076;113.488;2023-04-26T03:55:47;12.56;15.61
60242;SHT30;46103;52.076;113.488;2023-04-26T03:58:50;12.78;15.96
60242;SHT30;46103;52.076;113.488;2023-04-26T04:01:55;12.68;15.59
60242;SHT30;46103;52.076;113.488;2023-04-26T04:05:00;12.73;15.77
60242;SHT30;46103;52.076;113.488;2023-04-26T04:08:04;12.76;15.73
60242;SHT30;46103;52.076;113.488;2023-04-26T04:11:09;12.75;15.95
60242;SHT30;46103;52.076;113.488;2023-04-26T04:14:13;12.79;16.04
60242;SHT30;46103;52.076;113.488;2023-04-26T04:17:18;12.92;15.88
60242;SHT30;46103;52.076;113.488;2023-04-26T04:20:21;13.16;16.05
60242;SHT30;46103;52.076;113.488;2023-04-26T04:23:25;13.37;16.02
60242;SHT30;46103;52.076;113.488;2023-04-26T04:26:30;13.65;15.36
60242;SHT30;46103;52.076;113.488;2023-04-26T04:29:33;13.72;15.42
60242;SHT30;46103;52.076;113.488;2023-04-26T04:32:37;13.81;14.34
60242;SHT30;46103;52.076;113.488;2023-04-26T04:35:42;13.62;14.61
60242;SHT30;46103;52.076;113.488;2023-04-26T04:38:47;13.78;14.72
60242;SHT30;46103;52.076;113.488;2023-04-26T04:41:53;13.66;14.54
60242;SHT30;46103;52.076;113.488;2023-04-26T04:44:57;13.86;15.14
60242;SHT30;46103;52.076;113.488;2023-04-26T04:48:03;13.99;15.30
60242;SHT30;46103;52.076;113.488;2023-04-26T04:51:07;13.89;15.64
60242;SHT30;46103;52.076;113.488;2023-04-26T04:54:16;13.98;15.48
60242;SHT30;46103;52.076;113.488;2023-04-26T04:57:21;14.17;15.40
60242;SHT30;46103;52.076;113.488;2023-04-26T05:00:25;13.86;15.58
60242;SHT30;46103;52.076;113.488;2023-04-26T05:03:38;13.79;15.38
60242;SHT30;46103;52.076;113.488;2023-04-26T05:06:42;14.02;15.54
60242;SHT30;46103;52.076;113.488;2023-04-26T05:09:45;13.98;15.49
60242;SHT30;46103;52.076;113.488;2023-04-26T05:12:50;14.06;15.60
60242;SHT30;46103;52.076;113.488;2023-04-26T05:15:54;14.16;15.35
60242;SHT30;46103;52.076;113.488;2023-04-26T05:18:57;14.45;15.33
60242;SHT30;46103;52.076;113.488;2023-04-26T05:22:01;14.57;15.34
60242;SHT30;46103;52.076;113.488;2023-04-26T05:25:06;14.68;15.00
60242;SHT30;46103;52.076;113.488;2023-04-26T05:28:11;14.82;14.97
60242;SHT30;46103;52.076;113.488;2023-04-26T05:31:42;15.00;14.73
60242;SHT30;46103;52.076;113.488;2023-04-26T05:35:23;15.20;14.60
60242;SHT30;46103;52.076;113.488;2023-04-26T05:38:27;15.46;14.67
60242;SHT30;46103;52.076;113.488;2023-04-26T05:41:32;15.78;14.76
60242;SHT30;46103;52.076;113.488;2023-04-26T05:44:35;15.81;14.40
60242;SHT30;46103;52.076;113.488;2023-04-26T05:47:39;15.99;14.33
60242;SHT30;46103;52.076;113.488;2023-04-26T05:50:42;15.97;14.20
60242;SHT30;46103;52.076;113.488;2023-04-26T05:53:46;16.22;14.36
60242;SHT30;46103;52.076;113.488;2023-04-26T05:56:50;16.23;14.33
60242;SHT30;46103;52.076;113.488;2023-04-26T05:59:54;16.12;14.62
60242;SHT30;46103;52.076;113.488;2023-04-26T06:02:57;16.47;14.46
60242;SHT30;46103;52.076;113.488;2023-04-26T06:06:01;16.98;14.18
60242;SHT30;46103;52.076;113.488;2023-04-26T06:09:05;17.46;13.94
60242;SHT30;46103;52.076;113.488;2023-04-26T06:12:10;17.86;13.57
60242;SHT30;46103;52.076;113.488;2023-04-26T06:15:16;18.14;13.40
60242;SHT30;46103;52.076;113.488;2023-04-26T06:18:20;18.46;13.34
60242;SHT30;46103;52.076;113.488;2023-04-26T06:21:23;18.45;13.18
60242;SHT30;46103;52.076;113.488;2023-04-26T06:24:27;18.56;13.19
60242;SHT30;46103;52.076;113.488;2023-04-26T06:27:31;18.66;13.09
60242;SHT30;46103;52.076;113.488;2023-04-26T06:30:35;18.38;12.93
60242;SHT30;46103;52.076;113.488;2023-04-26T06:33:39;18.31;12.91
60242;SHT30;46103;52.076;113.488;2023-04-26T06:36:43;18.24;13.10
60242;SHT30;46103;52.076;113.488;2023-04-26T06:39:47;18.77;13.15
60242;SHT30;46103;52.076;113.488;2023-04-26T06:42:51;19.69;12.57
60242;SHT30;46103;52.076;113.488;2023-04-26T06:46:19;20.30;12.28
60242;SHT30;46103;52.076;113.488;2023-04-26T06:49:27;20.87;11.99
60242;SHT30;46103;52.076;113.488;2023-04-26T06:52:32;21.40;11.92
60242;SHT30;46103;52.076;113.488;2023-04-26T06:55:36;21.77;11.73
60242;SHT30;46103;52.076;113.488;2023-04-26T06:59:00;22.47;11.30
60242;SHT30;46103;52.076;113.488;2023-04-26T07:02:04;23.01;11.22
60242;SHT30;46103;52.076;113.488;2023-04-26T07:05:08;23.60;10.95
60242;SHT30;46103;52.076;113.488;2023-04-26T07:08:13;24.37;10.72
60242;SHT30;46103;52.076;113.488;2023-04-26T07:11:17;24.69;10.56
60242;SHT30;46103;52.076;113.488;2023-04-26T07:14:20;25.39;10.18
60242;SHT30;46103;52.076;113.488;2023-04-26T07:17:24;26.07;9.95
60242;SHT30;46103;52.076;113.488;2023-04-26T07:20:27;26.07;9.97
60242;SHT30;46103;52.076;113.488;2023-04-26T07:23:31;25.26;10.16
60242;SHT30;46103;52.076;113.488;2023-04-26T07:26:35;24.98;10.20
60242;SHT30;46103;52.076;113.488;2023-04-26T07:29:38;23.49;10.87
60242;SHT30;46103;52.076;113.488;2023-04-26T07:32:42;22.65;11.51
60242;SHT30;46103;52.076;113.488;2023-04-26T07:35:53;23.42;11.49
60242;SHT30;46103;52.076;113.488;2023-04-26T07:38:58;24.59;10.89
60242;SHT30;46103;52.076;113.488;2023-04-26T07:42:02;24.88;10.80
60242;SHT30;46103;52.076;113.488;2023-04-26T07:45:06;25.53;10.43
60242;SHT30;46103;52.076;113.488;2023-04-26T07:48:11;26.51;10.18
60242;SHT30;46103;52.076;113.488;2023-04-26T07:51:15;27.33;9.73
60242;SHT30;46103;52.076;113.488;2023-04-26T07:54:20;27.54;9.69
60242;SHT30;46103;52.076;113.488;2023-04-26T07:57:23;26.20;9.96
60242;SHT30;46103;52.076;113.488;2023-04-26T08:00:28;26.39;10.31
60242;SHT30;46103;52.076;113.488;2023-04-26T08:03:32;27.38;9.79
60242;SHT30;46103;52.076;113.488;2023-04-26T08:06:37;27.63;9.74
60242;SHT30;46103;52.076;113.488;2023-04-26T08:09:42;27.99;9.55
60242;SHT30;46103;52.076;113.488;2023-04-26T08:12:45;27.38;9.90
60242;SHT30;46103;52.076;113.488;2023-04-26T08:15:49;26.97;10.07
60242;SHT30;46103;52.076;113.488;2023-04-26T08:18:53;26.76;10.30
60242;SHT30;46103;52.076;113.488;2023-04-26T08:21:58;25.77;10.26
60242;SHT30;46103;52.076;113.488;2023-04-26T08:25:03;26.00;10.36
60242;SHT30;46103;52.076;113.488;2023-04-26T08:28:09;27.26;9.91
60242;SHT30;46103;52.076;113.488;2023-04-26T08:31:16;27.95;9.65
60242;SHT30;46103;52.076;113.488;2023-04-26T08:34:20;28.16;9.61
60242;SHT30;46103;52.076;113.488;2023-04-26T08:37:24;28.05;9.80
60242;SHT30;46103;52.076;113.488;2023-04-26T08:40:31;27.97;9.70
60242;SHT30;46103;52.076;113.488;2023-04-26T08:43:36;26.86;10.15
60242;SHT30;46103;52.076;113.488;2023-04-26T08:46:46;27.18;9.99
60242;SHT30;46103;52.076;113.488;2023-04-26T08:49:53;27.29;10.12
60242;SHT30;46103;52.076;113.488;2023-04-26T08:53:01;28.10;9.69
60242;SHT30;46103;52.076;113.488;2023-04-26T08:56:07;28.27;9.54
60242;SHT30;46103;52.076;113.488;2023-04-26T08:59:13;28.67;9.55
60242;SHT30;46103;52.076;113.488;2023-04-26T09:02:19;29.03;9.49
60242;SHT30;46103;52.076;113.488;2023-04-26T09:05:23;28.94;10.03
60242;SHT30;46103;52.076;113.488;2023-04-26T09:08:29;28.47;11.28
60242;SHT30;46103;52.076;113.488;2023-04-26T09:11:55;28.44;9.62
60242;SHT30;46103;52.076;113.488;2023-04-26T09:14:59;28.85;9.50
60242;SHT30;46103;52.076;113.488;2023-04-26T09:18:18;30.01;9.59
60242;SHT30;46103;52.076;113.488;2023-04-26T09:21:22;30.64;9.12
60242;SHT30;46103;52.076;113.488;2023-04-26T09:24:26;30.90;9.18
60242;SHT30;46103;52.076;113.488;2023-04-26T09:27:37;31.70;8.68
60242;SHT30;46103;52.076;113.488;2023-04-26T09:30:41;31.74;8.76
60242;SHT30;46103;52.076;113.488;2023-04-26T09:33:57;32.08;8.66
60242;SHT30;46103;52.076;113.488;2023-04-26T09:37:01;32.06;8.65
60242;SHT30;46103;52.076;113.488;2023-04-26T09:40:17;30.73;8.95
60242;SHT30;46103;52.076;113.488;2023-04-26T09:43:21;30.56;9.13
60242;SHT30;46103;52.076;113.488;2023-04-26T09:46:25;30.78;9.32
60242;SHT30;46103;52.076;113.488;2023-04-26T09:49:42;30.91;9.22
60242;SHT30;46103;52.076;113.488;2023-04-26T09:52:51;31.22;9.15
60242;SHT30;46103;52.076;113.488;2023-04-26T09:55:57;30.52;9.69
60242;SHT30;46103;52.076;113.488;2023-04-26T09:59:05;31.60;10.32
60242;SHT30;46103;52.076;113.488;2023-04-26T10:02:19;32.53;9.44
60242;SHT30;46103;52.076;113.488;2023-04-26T10:05:24;32.96;9.36
60242;SHT30;46103;52.076;113.488;2023-04-26T10:08:30;32.27;9.51
60242;SHT30;46103;52.076;113.488;2023-04-26T10:11:36;30.09;9.60
60242;SHT30;46103;52.076;113.488;2023-04-26T10:14:43;28.13;13.57
60242;SHT30;46103;52.076;113.488;2023-04-26T10:17:47;26.92;12.07
60242;SHT30;46103;52.076;113.488;2023-04-26T10:20:58;26.39;11.60
60242;SHT30;46103;52.076;113.488;2023-04-26T10:24:02;25.76;13.13
60242;SHT30;46103;52.076;113.488;2023-04-26T10:27:08;24.46;11.71
60242;SHT30;46103;52.076;113.488;2023-04-26T10:30:13;24.74;11.67
60242;SHT30;46103;52.076;113.488;2023-04-26T10:33:16;24.92;11.46
60242;SHT30;46103;52.076;113.488;2023-04-26T10:36:21;24.42;11.73
60242;SHT30;46103;52.076;113.488;2023-04-26T10:39:25;23.43;12.09
60242;SHT30;46103;52.076;113.488;2023-04-26T10:42:30;23.15;12.49
60242;SHT30;46103;52.076;113.488;2023-04-26T10:45:35;22.76;12.56
60242;SHT30;46103;52.076;113.488;2023-04-26T10:48:39;22.58;12.79
60242;SHT30;46103;52.076;113.488;2023-04-26T10:52:10;22.32;12.98
60242;SHT30;46103;52.076;113.488;2023-04-26T10:55:40;21.62;13.44
60242;SHT30;46103;52.076;113.488;2023-04-26T10:58:45;21.04;13.58
60242;SHT30;46103;52.076;113.488;2023-04-26T11:01:51;20.51;13.94
60242;SHT30;46103;52.076;113.488;2023-04-26T11:04:55;19.94;14.21
60242;SHT30;46103;52.076;113.488;2023-04-26T11:11:11;18.45;15.10
60242;SHT30;46103;52.076;113.488;2023-04-26T11:14:16;17.80;15.60
60242;SHT30;46103;52.076;113.488;2023-04-26T11:17:21;17.22;15.94
60242;SHT30;46103;52.076;113.488;2023-04-26T11:20:31;16.71;16.48
60242;SHT30;46103;52.076;113.488;2023-04-26T11:23:35;16.28;17.00
60242;SHT30;46103;52.076;113.488;2023-04-26T11:26:39;15.82;17.51
60242;SHT30;46103;52.076;113.488;2023-04-26T11:29:42;15.32;17.72
60242;SHT30;46103;52.076;113.488;2023-04-26T11:32:46;14.91;18.23
60242;SHT30;46103;52.076;113.488;2023-04-26T11:35:51;14.52;18.96
60242;SHT30;46103;52.076;113.488;2023-04-26T11:38:56;14.17;19.31
60242;SHT30;46103;52.076;113.488;2023-04-26T11:42:12;13.85;19.27
60242;SHT30;46103;52.076;113.488;2023-04-26T11:45:17;13.55;19.44
60242;SHT30;46103;52.076;113.488;2023-04-26T11:48:20;13.30;19.54
60242;SHT30;46103;52.076;113.488;2023-04-26T11:51:24;12.99;20.78
60242;SHT30;46103;52.076;113.488;2023-04-26T11:54:34;12.78;20.22
60242;SHT30;46103;52.076;113.488;2023-04-26T11:57:39;12.54;20.70
60242;SHT30;46103;52.076;113.488;2023-04-26T12:01:00;12.35;20.66
60242;SHT30;46103;52.076;113.488;2023-04-26T12:04:08;12.12;20.78
60242;SHT30;46103;52.076;113.488;2023-04-26T12:07:17;11.93;20.70
60242;SHT30;46103;52.076;113.488;2023-04-26T12:10:31;11.83;20.68
60242;SHT30;46103;52.076;113.488;2023-04-26T12:13:34;11.78;20.37
60242;SHT30;46103;52.076;113.488;2023-04-26T12:16:42;11.73;20.69
60242;SHT30;46103;52.076;113.488;2023-04-26T12:19:48;11.62;20.50
60242;SHT30;46103;52.076;113.488;2023-04-26T12:23:01;11.48;20.81
60242;SHT30;46103;52.076;113.488;2023-04-26T12:26:06;11.38;20.85
60242;SHT30;46103;52.076;113.488;2023-04-26T12:29:12;11.25;20.83
60242;SHT30;46103;52.076;113.488;2023-04-26T12:32:15;11.17;21.32
60242;SHT30;46103;52.076;113.488;2023-04-26T12:35:22;10.99;21.36
60242;SHT30;46103;52.076;113.488;2023-04-26T12:38:26;10.90;21.54
60242;SHT30;46103;52.076;113.488;2023-04-26T12:41:30;10.81;21.49
60242;SHT30;46103;52.076;113.488;2023-04-26T12:44:34;10.92;21.17
60242;SHT30;46103;52.076;113.488;2023-04-26T12:47:38;10.96;21.06
60242;SHT30;46103;52.076;113.488;2023-04-26T12:50:42;10.99;21.12
60242;SHT30;46103;52.076;113.488;2023-04-26T12:53:48;11.04;21.25
60242;SHT30;46103;52.076;113.488;2023-04-26T12:56:53;11.07;21.43
60242;SHT30;46103;52.076;113.488;2023-04-26T12:59:56;10.94;21.81
60242;SHT30;46103;52.076;113.488;2023-04-26T13:03:00;10.96;21.90
60242;SHT30;46103;52.076;113.488;2023-04-26T13:06:05;10.92;22.05
60242;SHT30;46103;52.076;113.488;2023-04-26T13:09:08;10.86;22.31
60242;SHT30;46103;52.076;113.488;2023-04-26T13:12:15;10.80;22.40
60242;SHT30;46103;52.076;113.488;2023-04-26T13:15:18;10.75;22.35
60242;SHT30;46103;52.076;113.488;2023-04-26T13:18:23;10.70;22.58
60242;SHT30;46103;52.076;113.488;2023-04-26T13:21:28;10.60;22.63
60242;SHT30;46103;52.076;113.488;2023-04-26T13:24:33;10.56;22.79
60242;SHT30;46103;52.076;113.488;2023-04-26T13:27:37;10.46;22.97
60242;SHT30;46103;52.076;113.488;2023-04-26T13:30:41;10.44;23.09
60242;SHT30;46103;52.076;113.488;2023-04-26T13:33:45;10.41;23.14
60242;SHT30;46103;52.076;113.488;2023-04-26T13:36:52;10.39;23.10
60242;SHT30;46103;52.076;113.488;2023-04-26T13:39:55;10.08;25.36
60242;SHT30;46103;52.076;113.488;2023-04-26T13:43:03;9.57;26.20
60242;SHT30;46103;52.076;113.488;2023-04-26T13:46:07;9.43;26.30
60242;SHT30;46103;52.076;113.488;2023-04-26T13:49:10;8.94;27.35
60242;SHT30;46103;52.076;113.488;2023-04-26T13:52:13;8.73;28.24
60242;SHT30;46103;52.076;113.488;2023-04-26T13:55:19;8.54;27.93
60242;SHT30;46103;52.076;113.488;2023-04-26T13:58:24;8.52;28.38
60242;SHT30;46103;52.076;113.488;2023-04-26T14:01:27;8.45;28.69
60242;SHT30;46103;52.076;113.488;2023-04-26T14:04:31;8.33;27.70
60242;SHT30;46103;52.076;113.488;2023-04-26T14:07:34;8.39;27.70
60242;SHT30;46103;52.076;113.488;2023-04-26T14:10:39;8.40;27.83
60242;SHT30;46103;52.076;113.488;2023-04-26T14:13:42;8.39;27.69
60242;SHT30;46103;52.076;113.488;2023-04-26T14:16:46;8.43;27.77
60242;SHT30;46103;52.076;113.488;2023-04-26T14:19:49;8.46;27.25
60242;SHT30;46103;52.076;113.488;2023-04-26T14:22:55;8.46;27.27
60242;SHT30;46103;52.076;113.488;2023-04-26T14:25:58;8.52;26.69
60242;SHT30;46103;52.076;113.488;2023-04-26T14:29:02;8.54;26.40
60242;SHT30;46103;52.076;113.488;2023-04-26T14:32:09;8.59;26.36
60242;SHT30;46103;52.076;113.488;2023-04-26T14:35:13;8.56;26.35
60242;SHT30;46103;52.076;113.488;2023-04-26T14:38:17;8.60;26.31
60242;SHT30;46103;52.076;113.488;2023-04-26T14:41:23;8.61;26.50
60242;SHT30;46103;52.076;113.488;2023-04-26T14:44:26;8.59;26.40
60242;SHT30;46103;52.076;113.488;2023-04-26T14:47:30;8.54;26.48
60242;SHT30;46103;52.076;113.488;2023-04-26T14:50:34;8.54;26.40
60242;SHT30;46103;52.076;113.488;2023-04-26T14:53:39;8.57;26.21
60242;SHT30;46103;52.076;113.488;2023-04-26T14:56:43;8.56;26.17
60242;SHT30;46103;52.076;113.488;2023-04-26T14:59:47;8.53;26.12
60242;SHT30;46103;52.076;113.488;2023-04-26T15:02:50;8.50;26.37
60242;SHT30;46103;52.076;113.488;2023-04-26T15:05:55;8.46;26.39
60242;SHT30;46103;52.076;113.488;2023-04-26T15:08:59;8.32;26.81
60242;SHT30;46103;52.076;113.488;2023-04-26T15:12:03;8.22;27.53
60242;SHT30;46103;52.076;113.488;2023-04-26T15:15:06;8.06;27.90
60242;SHT30;46103;52.076;113.488;2023-04-26T15:18:10;8.02;27.96
60242;SHT30;46103;52.076;113.488;2023-04-26T15:21:18;7.95;28.48
60242;SHT30;46103;52.076;113.488;2023-04-26T15:24:22;7.88;28.37
60242;SHT30;46103;52.076;113.488;2023-04-26T15:27:26;7.87;28.06
60242;SHT30;46103;52.076;113.488;2023-04-26T15:30:29;7.81;28.17
60242;SHT30;46103;52.076;113.488;2023-04-26T15:33:33;7.81;27.60
60242;SHT30;46103;52.076;113.488;2023-04-26T15:36:38;7.78;27.38
60242;SHT30;46103;52.076;113.488;2023-04-26T15:39:42;7.80;27.45
60242;SHT30;46103;52.076;113.488;2023-04-26T15:42:45;7.74;27.63
60242;SHT30;46103;52.076;113.488;2023-04-26T15:45:51;7.67;27.68
60242;SHT30;46103;52.076;113.488;2023-04-26T15:48:54;7.64;28.04
60242;SHT30;46103;52.076;113.488;2023-04-26T15:51:58;7.64;27.60
60242;SHT30;46103;52.076;113.488;2023-04-26T15:55:03;7.66;27.74
60242;SHT30;46103;52.076;113.488;2023-04-26T15:58:09;7.64;27.99
60242;SHT30;46103;52.076;113.488;2023-04-26T16:01:13;7.62;28.22
60242;SHT30;46103;52.076;113.488;2023-04-26T16:04:17;7.60;28.46
60242;SHT30;46103;52.076;113.488;2023-04-26T16:07:21;7.49;28.50
60242;SHT30;46103;52.076;113.488;2023-04-26T16:10:26;7.49;28.91
60242;SHT30;46103;52.076;113.488;2023-04-26T16:13:30;7.50;28.50
60242;SHT30;46103;52.076;113.488;2023-04-26T16:16:35;7.43;29.11
60242;SHT30;46103;52.076;113.488;2023-04-26T16:19:40;7.42;28.88
60242;SHT30;46103;52.076;113.488;2023-04-26T16:22:44;7.33;29.62
60242;SHT30;46103;52.076;113.488;2023-04-26T16:25:48;7.28;28.81
60242;SHT30;46103;52.076;113.488;2023-04-26T16:28:52;7.22;29.58
60242;SHT30;46103;52.076;113.488;2023-04-26T16:31:57;7.15;29.28
60242;SHT30;46103;52.076;113.488;2023-04-26T16:35:01;7.11;29.55
60242;SHT30;46103;52.076;113.488;2023-04-26T16:38:04;7.02;29.68
60242;SHT30;46103;52.076;113.488;2023-04-26T16:41:08;6.95;29.73
60242;SHT30;46103;52.076;113.488;2023-04-26T16:44:12;6.85;29.87
60242;SHT30;46103;52.076;113.488;2023-04-26T16:47:17;6.84;30.01
60242;SHT30;46103;52.076;113.488;2023-04-26T16:50:21;6.80;30.06
60242;SHT30;46103;52.076;113.488;2023-04-26T16:53:24;6.76;30.26
60242;SHT30;46103;52.076;113.488;2023-04-26T16:56:28;6.67;30.42
60242;SHT30;46103;52.076;113.488;2023-04-26T16:59:32;6.64;30.48
60242;SHT30;46103;52.076;113.488;2023-04-26T17:02:36;6.66;30.53
60242;SHT30;46103;52.076;113.488;2023-04-26T17:05:43;6.64;30.57
60242;SHT30;46103;52.076;113.488;2023-04-26T17:08:49;6.61;30.87
60242;SHT30;46103;52.076;113.488;2023-04-26T17:11:53;6.58;30.77
60242;SHT30;46103;52.076;113.488;2023-04-26T17:14:56;6.57;31.19
60242;SHT30;46103;52.076;113.488;2023-04-26T17:18:00;6.56;30.94
60242;SHT30;46103;52.076;113.488;2023-04-26T17:21:05;6.50;31.15
60242;SHT30;46103;52.076;113.488;2023-04-26T17:24:09;6.47;31.28
60242;SHT30;46103;52.076;113.488;2023-04-26T17:27:13;6.47;31.29
60242;SHT30;46103;52.076;113.488;2023-04-26T17:30:18;6.46;31.28
60242;SHT30;46103;52.076;113.488;2023-04-26T17:33:22;6.43;31.55
60242;SHT30;46103;52.076;113.488;2023-04-26T17:36:28;6.39;31.34
60242;SHT30;46103;52.076;113.488;2023-04-26T17:39:32;6.37;31.75
60242;SHT30;46103;52.076;113.488;2023-04-26T17:42:36;6.32;31.97
60242;SHT30;46103;52.076;113.488;2023-04-26T17:45:39;6.30;31.92
60242;SHT30;46103;52.076;113.488;2023-04-26T17:48:43;6.34;32.03
60242;SHT30;46103;52.076;113.488;2023-04-26T17:51:50;6.33;32.11
60242;SHT30;46103;52.076;113.488;2023-04-26T17:54:55;6.34;32.30
60242;SHT30;46103;52.076;113.488;2023-04-26T17:57:58;6.34;32.11
60242;SHT30;46103;52.076;113.488;2023-04-26T18:01:03;6.36;32.47
60242;SHT30;46103;52.076;113.488;2023-04-26T18:04:07;6.34;32.25
60242;SHT30;46103;52.076;113.488;2023-04-26T18:07:12;6.34;32.25
60242;SHT30;46103;52.076;113.488;2023-04-26T18:10:16;6.33;32.25
60242;SHT30;46103;52.076;113.488;2023-04-26T18:13:20;6.30;32.37
60242;SHT30;46103;52.076;113.488;2023-04-26T18:16:24;6.32;32.42
60242;SHT30;46103;52.076;113.488;2023-04-26T18:19:27;6.34;32.30
60242;SHT30;46103;52.076;113.488;2023-04-26T18:22:31;6.29;32.53
60242;SHT30;46103;52.076;113.488;2023-04-26T18:25:34;6.28;32.62
60242;SHT30;46103;52.076;113.488;2023-04-26T18:28:38;6.18;32.76
60242;SHT30;46103;52.076;113.488;2023-04-26T18:31:42;6.11;33.10
60242;SHT30;46103;52.076;113.488;2023-04-26T18:34:46;6.09;33.23
60242;SHT30;46103;52.076;113.488;2023-04-26T18:37:50;6.02;32.99
60242;SHT30;46103;52.076;113.488;2023-04-26T18:40:54;6.01;33.36
60242;SHT30;46103;52.076;113.488;2023-04-26T18:43:57;6.01;33.38
60242;SHT30;46103;52.076;113.488;2023-04-26T18:47:01;6.06;33.24
60242;SHT30;46103;52.076;113.488;2023-04-26T18:50:05;6.06;33.38
60242;SHT30;46103;52.076;113.488;2023-04-26T18:53:10;6.02;33.28
60242;SHT30;46103;52.076;113.488;2023-04-26T18:56:14;6.02;33.45
60242;SHT30;46103;52.076;113.488;2023-04-26T18:59:18;5.95;33.62
60242;SHT30;46103;52.076;113.488;2023-04-26T19:02:22;5.91;33.39
60242;SHT30;46103;52.076;113.488;2023-04-26T19:05:26;5.81;33.55
60242;SHT30;46103;52.076;113.488;2023-04-26T19:08:30;5.78;33.52